Time;durP1;ratioP1;P1;durP2;ratioP2;P2;SDS_P1;SDS_P2;PMS_P1;PMS_P2;Temp;Humidity;BMP_temperature;BMP_pressure;BME280_temperature;BME280_humidity;BME280_pressure;Samples;Min_cycle;Max_cycle;Signal;HPM_P1;HPM_P2
2021/04/04 00:02:14;;;;;;;3.72;1.60;;;6.80;90.10;;;;;;4855476;29;20430;-75
2021/04/04 00:04:41;;;;;;;7.07;2.00;;;6.80;89.50;;;;;;4854120;29;20177;-74
2021/04/04 00:07:07;;;;;;;4.85;1.77;;;6.80;89.10;;;;;;4853929;29;20049;-75
2021/04/04 00:09:34;;;;;;;4.85;1.45;;;6.90;88.60;;;;;;4856267;29;20049;-75
2021/04/04 00:12:01;;;;;;;3.20;1.40;;;6.90;88.00;;;;;;4855031;29;20145;-75
2021/04/04 00:14:28;;;;;;;6.63;1.33;;;6.90;88.10;;;;;;4858438;29;20033;-74
2021/04/04 00:16:54;;;;;;;3.95;1.20;;;6.80;87.90;;;;;;4843331;29;20053;-74
2021/04/04 00:19:21;;;;;;;5.88;1.45;;;6.70;88.10;;;;;;4830065;29;20041;-74
2021/04/04 00:21:47;;;;;;;5.28;1.58;;;6.80;87.70;;;;;;4852370;29;20046;-74
2021/04/04 00:24:14;;;;;;;4.75;1.65;;;6.70;88.10;;;;;;4854058;29;20038;-74
2021/04/04 00:26:40;;;;;;;4.00;1.40;;;6.70;87.80;;;;;;4836900;29;20045;-75
2021/04/04 00:29:08;;;;;;;3.25;1.10;;;6.70;87.70;;;;;;4852742;29;20049;-75
2021/04/04 00:31:35;;;;;;;4.60;1.55;;;6.70;87.80;;;;;;4856036;29;20056;-74
2021/04/04 00:34:03;;;;;;;3.70;1.55;;;6.70;87.80;;;;;;4854822;29;20053;-74
2021/04/04 00:36:30;;;;;;;3.13;1.23;;;6.60;88.10;;;;;;4855378;29;20042;-74
2021/04/04 00:38:56;;;;;;;4.15;1.80;;;6.60;88.30;;;;;;4818357;29;20528;-74
2021/04/04 00:41:23;;;;;;;6.45;2.92;;;6.40;89.00;;;;;;4857381;29;20057;-75
2021/04/04 00:43:50;;;;;;;7.38;2.80;;;6.20;90.00;;;;;;4857093;29;20625;-74
2021/04/04 00:46:16;;;;;;;5.30;2.28;;;6.10;90.20;;;;;;4853067;29;20400;-75
2021/04/04 00:48:43;;;;;;;4.80;2.00;;;6.10;90.40;;;;;;4853322;29;20062;-74
2021/04/04 00:51:09;;;;;;;6.32;2.10;;;6.10;90.50;;;;;;4840174;29;20041;-74
2021/04/04 00:53:36;;;;;;;5.68;1.58;;;6.10;90.50;;;;;;4833088;29;20129;-75
2021/04/04 00:56:03;;;;;;;5.38;1.55;;;6.10;90.70;;;;;;4836479;29;20049;-74
2021/04/04 00:58:29;;;;;;;5.40;2.17;;;6.20;90.60;;;;;;4854148;29;20425;-74
2021/04/04 01:00:58;;;;;;;3.60;1.40;;;6.10;90.50;;;;;;4857249;29;20048;-74
2021/04/04 01:03:24;;;;;;;6.53;2.08;;;6.10;90.30;;;;;;4857484;29;20130;-75
2021/04/04 01:05:54;;;;;;;5.40;1.50;;;6.20;90.30;;;;;;4835422;29;20045;-75
2021/04/04 01:08:21;;;;;;;4.38;1.65;;;6.20;90.10;;;;;;4837750;29;20042;-75
2021/04/04 01:10:49;;;;;;;5.10;1.65;;;6.20;90.00;;;;;;4840092;29;20537;-75
2021/04/04 01:13:44;;;;;;;6.85;2.10;;;6.20;89.50;;;;;;4841452;29;20053;-75
2021/04/04 01:16:19;;;;;;;6.15;2.10;;;6.20;89.50;;;;;;4855632;29;20370;-75
2021/04/04 01:19:07;;;;;;;4.05;1.70;;;6.20;89.40;;;;;;4843048;29;20513;-75
2021/04/04 01:21:44;;;;;;;6.07;2.35;;;6.20;89.10;;;;;;4841669;29;20092;-75
2021/04/04 01:24:38;;;;;;;5.07;1.67;;;6.20;87.30;;;;;;4864334;29;20369;-75
2021/04/04 01:27:15;;;;;;;5.90;2.25;;;6.10;85.40;;;;;;4860239;29;20049;-74
2021/04/04 01:29:42;;;;;;;6.30;2.05;;;6.10;84.00;;;;;;4853846;29;20120;-75
2021/04/04 01:32:10;;;;;;;4.78;1.75;;;6.00;82.80;;;;;;4843890;29;20049;-75
2021/04/04 01:34:38;;;;;;;5.07;1.73;;;6.00;82.80;;;;;;4842003;29;20037;-74
2021/04/04 01:37:10;;;;;;;5.78;2.20;;;6.10;82.00;;;;;;4857217;29;20088;-74
2021/04/04 01:39:50;;;;;;;4.75;2.20;;;6.00;81.70;;;;;;4833882;29;20497;-74
2021/04/04 01:42:18;;;;;;;8.10;2.42;;;6.00;81.50;;;;;;4858237;29;20492;-75
2021/04/04 01:44:47;;;;;;;6.95;2.60;;;6.00;81.00;;;;;;4855948;29;20045;-75
2021/04/04 01:47:15;;;;;;;4.28;2.00;;;6.00;80.90;;;;;;4860834;29;20102;-75
2021/04/04 01:49:48;;;;;;;6.03;2.08;;;5.90;80.40;;;;;;4859648;29;20374;-75
2021/04/04 01:52:16;;;;;;;6.57;2.45;;;5.90;80.20;;;;;;4837051;29;20057;-75
2021/04/04 01:54:45;;;;;;;8.73;3.05;;;5.80;80.00;;;;;;4856094;29;20099;-74
2021/04/04 01:57:13;;;;;;;5.95;2.33;;;5.90;79.80;;;;;;4846947;29;20067;-75
2021/04/04 01:59:42;;;;;;;9.55;2.92;;;5.80;79.30;;;;;;4852022;29;20041;-75
2021/04/04 02:02:09;;;;;;;6.65;2.38;;;5.90;78.20;;;;;;4853555;29;20094;-75
2021/04/04 02:04:37;;;;;;;8.55;3.00;;;6.00;77.40;;;;;;4845821;29;20057;-75
2021/04/04 02:07:06;;;;;;;10.38;4.15;;;5.90;76.80;;;;;;4860385;29;20405;-74
2021/04/04 02:09:35;;;;;;;8.35;3.47;;;5.90;76.30;;;;;;4860315;29;20064;-74
2021/04/04 02:12:05;;;;;;;8.40;3.25;;;5.90;76.10;;;;;;4859793;29;20389;-75
2021/04/04 02:14:33;;;;;;;7.57;4.35;;;6.00;75.70;;;;;;4856483;29;20061;-75
2021/04/04 02:17:01;;;;;;;7.15;3.13;;;5.90;75.80;;;;;;4855764;29;20552;-75
2021/04/04 02:19:28;;;;;;;10.27;3.70;;;6.00;75.70;;;;;;4855284;29;20037;-75
2021/04/04 02:21:57;;;;;;;9.25;4.30;;;5.90;75.60;;;;;;4858145;29;20037;-75
2021/04/04 02:24:27;;;;;;;8.25;3.42;;;5.80;75.30;;;;;;4833939;29;20439;-74
2021/04/04 02:26:54;;;;;;;8.02;3.67;;;5.80;75.50;;;;;;4866184;29;20056;-74
2021/04/04 02:29:21;;;;;;;8.15;3.40;;;5.70;75.60;;;;;;4841560;29;20049;-74
2021/04/04 02:32:09;;;;;;;7.78;3.30;;;5.70;75.70;;;;;;4857289;29;20077;-75
2021/04/04 02:34:40;;;;;;;7.78;3.10;;;5.70;75.50;;;;;;4859394;29;20053;-74
2021/04/04 02:37:11;;;;;;;7.68;3.28;;;5.70;75.60;;;;;;4858513;29;20050;-74
2021/04/04 02:39:52;;;;;;;6.20;3.38;;;5.60;75.80;;;;;;4845002;29;20049;-74
2021/04/04 02:42:21;;;;;;;7.75;3.55;;;5.60;75.70;;;;;;4862088;29;20102;-74
2021/04/04 02:44:51;;;;;;;10.73;3.80;;;5.60;75.70;;;;;;4844948;29;20612;-74
2021/04/04 02:47:31;;;;;;;6.07;2.92;;;5.70;75.50;;;;;;4850686;29;20054;-74
2021/04/04 02:50:00;;;;;;;8.23;3.90;;;5.70;75.70;;;;;;4851882;29;20524;-74
2021/04/04 02:52:27;;;;;;;5.18;2.72;;;5.60;75.60;;;;;;4860506;29;20717;-74
2021/04/04 02:54:56;;;;;;;7.45;2.75;;;5.60;75.40;;;;;;4856142;29;20116;-74
2021/04/04 02:57:28;;;;;;;7.97;3.42;;;5.60;75.90;;;;;;4843826;29;20042;-74
2021/04/04 02:59:59;;;;;;;7.25;3.38;;;5.50;76.20;;;;;;4859208;29;20090;-75
2021/04/04 03:02:27;;;;;;;8.75;3.50;;;5.50;76.10;;;;;;4861144;29;20058;-74
2021/04/04 03:04:56;;;;;;;8.27;3.30;;;5.40;76.40;;;;;;4858916;29;20045;-74
2021/04/04 03:07:25;;;;;;;7.35;3.40;;;5.40;76.60;;;;;;4840517;29;20076;-74
2021/04/04 03:09:53;;;;;;;8.45;3.45;;;5.30;77.00;;;;;;4838277;29;20057;-74
2021/04/04 03:12:22;;;;;;;7.13;2.90;;;5.20;77.30;;;;;;4848719;29;20045;-75
2021/04/04 03:14:51;;;;;;;8.75;3.63;;;5.40;77.20;;;;;;4860139;29;20046;-74
2021/04/04 03:17:18;;;;;;;8.40;3.53;;;5.40;76.90;;;;;;4858103;29;20447;-74
2021/04/04 03:19:46;;;;;;;5.68;3.08;;;5.40;76.90;;;;;;4843654;29;20050;-74
2021/04/04 03:22:13;;;;;;;11.70;3.95;;;5.40;77.30;;;;;;4859945;29;20045;-75
2021/04/04 03:24:41;;;;;;;8.07;3.00;;;5.30;77.60;;;;;;4844306;29;20540;-74
2021/04/04 03:27:09;;;;;;;8.27;3.42;;;5.30;77.80;;;;;;4858538;29;20513;-74
2021/04/04 03:29:38;;;;;;;7.03;3.33;;;5.30;77.40;;;;;;4855433;29;20046;-75
2021/04/04 03:32:06;;;;;;;7.68;3.35;;;5.30;77.30;;;;;;4832114;29;20061;-74
2021/04/04 03:34:34;;;;;;;6.43;2.55;;;5.20;77.70;;;;;;4841492;29;20096;-74
2021/04/04 03:37:01;;;;;;;9.90;3.42;;;5.10;78.10;;;;;;4835199;29;20057;-74
2021/04/04 03:39:28;;;;;;;8.30;3.47;;;5.10;78.00;;;;;;4842752;29;20519;-75
2021/04/04 03:41:57;;;;;;;7.82;3.22;;;5.20;78.20;;;;;;4840736;29;20041;-74
2021/04/04 03:44:31;;;;;;;10.40;3.67;;;5.10;78.20;;;;;;4858516;29;20455;-74
2021/04/04 03:46:58;;;;;;;8.75;3.67;;;5.10;78.20;;;;;;4851027;29;20381;-74
2021/04/04 03:49:25;;;;;;;9.25;3.08;;;5.10;78.10;;;;;;4840847;29;20045;-74
2021/04/04 03:51:55;;;;;;;7.88;3.40;;;5.00;78.50;;;;;;4860762;29;20042;-74
2021/04/04 03:54:24;;;;;;;9.25;3.30;;;5.00;78.80;;;;;;4862416;29;20112;-74
2021/04/04 03:56:52;;;;;;;7.50;3.05;;;4.90;78.90;;;;;;4858185;29;20053;-75
2021/04/04 03:59:22;;;;;;;7.47;3.03;;;4.80;79.40;;;;;;4857614;29;20064;-75
2021/04/04 04:01:50;;;;;;;11.25;3.88;;;4.80;79.30;;;;;;4853127;29;20501;-75
2021/04/04 04:04:19;;;;;;;8.50;3.63;;;4.80;79.60;;;;;;4838780;29;20048;-75
2021/04/04 04:06:47;;;;;;;8.45;3.70;;;4.70;79.90;;;;;;4855022;29;20046;-75
2021/04/04 04:09:17;;;;;;;7.50;3.13;;;4.70;80.10;;;;;;4858959;29;20457;-75
2021/04/04 04:11:47;;;;;;;9.20;3.63;;;4.60;80.70;;;;;;4860127;29;20725;-75
2021/04/04 04:14:19;;;;;;;7.60;3.38;;;4.60;80.30;;;;;;4857867;29;20042;-75
2021/04/04 04:16:46;;;;;;;9.30;3.88;;;4.50;80.60;;;;;;4843834;29;20133;-75
2021/04/04 04:19:15;;;;;;;9.75;3.35;;;4.60;80.30;;;;;;4857621;29;20699;-75
2021/04/04 04:21:41;;;;;;;9.88;3.45;;;4.50;80.80;;;;;;4848124;29;20054;-75
2021/04/04 04:24:13;;;;;;;11.68;4.05;;;4.40;81.50;;;;;;4858841;29;20137;-75
2021/04/04 04:26:48;;;;;;;11.70;3.58;;;4.40;81.40;;;;;;4859705;29;20049;-75
2021/04/04 04:29:18;;;;;;;10.55;4.18;;;4.40;81.40;;;;;;4860665;29;20523;-75
2021/04/04 04:31:48;;;;;;;11.77;4.97;;;4.30;81.30;;;;;;4858099;29;20496;-75
2021/04/04 04:34:15;;;;;;;20.05;5.55;;;4.20;81.60;;;;;;4856742;29;20143;-74
2021/04/04 04:36:42;;;;;;;15.23;5.22;;;4.30;81.60;;;;;;4836796;29;20084;-74
2021/04/04 04:39:10;;;;;;;12.50;4.97;;;4.30;81.80;;;;;;4841885;29;20061;-74
2021/04/04 04:41:44;;;;;;;13.65;5.78;;;4.20;82.50;;;;;;4857210;29;20050;-74
2021/04/04 04:44:20;;;;;;;12.95;5.00;;;4.20;82.70;;;;;;4857789;29;20060;-74
2021/04/04 04:46:48;;;;;;;12.73;4.65;;;4.20;82.20;;;;;;4854587;29;20409;-74
2021/04/04 04:49:15;;;;;;;13.27;5.00;;;4.30;82.70;;;;;;4834820;29;20048;-74
2021/04/04 04:51:46;;;;;;;13.25;4.95;;;4.30;83.30;;;;;;4857232;29;20061;-74
2021/04/04 04:54:13;;;;;;;12.13;5.40;;;4.20;82.90;;;;;;4842375;29;20045;-74
2021/04/04 04:56:41;;;;;;;10.48;4.38;;;4.20;83.10;;;;;;4836683;29;20411;-74
2021/04/04 04:59:08;;;;;;;8.18;3.08;;;4.30;83.40;;;;;;4842828;29;20047;-75
2021/04/04 05:01:39;;;;;;;9.93;4.22;;;4.40;83.00;;;;;;4857599;29;20507;-74
2021/04/04 05:04:07;;;;;;;8.93;3.90;;;4.50;83.10;;;;;;4856516;29;20066;-74
2021/04/04 05:06:33;;;;;;;14.55;4.00;;;4.60;82.10;;;;;;4856794;29;20076;-74
2021/04/04 05:09:01;;;;;;;9.13;3.78;;;4.70;81.60;;;;;;4858507;29;20054;-74
2021/04/04 05:11:29;;;;;;;10.98;3.65;;;4.80;81.30;;;;;;4859346;29;20045;-74
2021/04/04 05:13:56;;;;;;;9.73;3.95;;;4.80;81.00;;;;;;4844248;29;20061;-74
2021/04/04 05:16:22;;;;;;;8.55;4.00;;;4.90;80.70;;;;;;4841997;29;20060;-75
2021/04/04 05:18:51;;;;;;;7.35;3.40;;;4.90;81.10;;;;;;4858782;29;20060;-74
2021/04/04 05:21:22;;;;;;;8.80;4.13;;;5.10;79.90;;;;;;4836807;29;20050;-74
2021/04/04 05:23:53;;;;;;;9.30;4.13;;;5.20;79.80;;;;;;4855056;29;20057;-74
2021/04/04 05:26:24;;;;;;;7.97;3.63;;;5.20;79.80;;;;;;4856827;29;20512;-74
2021/04/04 05:28:51;;;;;;;9.85;3.60;;;5.40;79.00;;;;;;4842497;29;20057;-74
2021/04/04 05:31:19;;;;;;;8.63;3.58;;;5.50;78.20;;;;;;4839856;29;20517;-74
2021/04/04 05:33:45;;;;;;;9.63;3.95;;;5.60;77.40;;;;;;4858416;29;20559;-74
2021/04/04 05:36:12;;;;;;;8.75;4.05;;;5.60;77.40;;;;;;4856050;29;20413;-74
2021/04/04 05:38:38;;;;;;;9.13;3.45;;;5.70;77.20;;;;;;4840658;29;20054;-74
2021/04/04 05:41:06;;;;;;;8.52;3.30;;;5.70;76.50;;;;;;4855886;29;20053;-74
2021/04/04 05:43:40;;;;;;;7.13;3.33;;;5.80;75.90;;;;;;4856478;29;20142;-74
2021/04/04 05:46:25;;;;;;;7.45;3.40;;;5.80;76.00;;;;;;4840582;29;20054;-74
2021/04/04 05:49:17;;;;;;;6.95;3.30;;;5.80;75.60;;;;;;4844500;29;20059;-74
2021/04/04 05:52:06;;;;;;;7.38;3.10;;;5.90;74.60;;;;;;4846894;29;20370;-75
2021/04/04 05:55:03;;;;;;;8.35;3.08;;;5.90;74.10;;;;;;4855884;29;20055;-74
2021/04/04 05:57:54;;;;;;;9.10;3.33;;;6.00;73.70;;;;;;4849755;29;20069;-74
2021/04/04 06:00:22;;;;;;;11.93;3.65;;;6.10;72.70;;;;;;4833527;29;20057;-74
2021/04/04 06:03:43;;;;;;;9.38;3.70;;;6.20;72.60;;;;;;4853931;29;20121;-74
2021/04/04 06:06:17;;;;;;;6.75;3.08;;;6.40;71.70;;;;;;4763171;30;20063;-74
2021/04/04 06:09:07;;;;;;;8.30;3.20;;;6.50;70.00;;;;;;4747895;30;20048;-75
2021/04/04 06:12:07;;;;;;;5.57;2.50;;;6.60;69.10;;;;;;4748017;30;20134;-75
2021/04/04 06:15:11;;;;;;;5.78;2.63;;;6.60;69.60;;;;;;4752003;30;20064;-74
2021/04/04 06:17:51;;;;;;;;;;;6.80;68.60;;;;;;4757023;30;20400;-74
2021/04/04 06:21:07;;;;;;;5.43;1.80;;;6.90;66.90;;;;;;4766513;30;20302;-75
2021/04/04 06:24:00;;;;;;;4.85;2.25;;;7.00;66.50;;;;;;4748351;30;20068;-75
2021/04/04 06:26:26;;;;;;;6.55;2.30;;;7.10;66.00;;;;;;4767781;30;20093;-75
2021/04/04 06:28:56;;;;;;;4.82;2.25;;;7.20;66.50;;;;;;4741260;30;20480;-75
2021/04/04 06:31:41;;;;;;;7.05;2.85;;;7.30;65.60;;;;;;4754239;30;20056;-75
2021/04/04 06:34:21;;;;;;;5.70;2.45;;;7.40;65.40;;;;;;4768995;30;20064;-75
2021/04/04 06:37:09;;;;;;;5.88;2.30;;;7.50;65.20;;;;;;4764478;30;20062;-75
2021/04/04 06:39:52;;;;;;;5.07;1.83;;;7.60;65.40;;;;;;4790388;29;20046;-75
2021/04/04 06:42:35;;;;;;;4.90;2.15;;;7.70;64.60;;;;;;4861385;29;20057;-75
2021/04/04 06:45:29;;;;;;;5.80;1.98;;;7.90;64.00;;;;;;4836067;29;20148;-75
2021/04/04 06:48:30;;;;;;;5.40;2.13;;;7.90;63.00;;;;;;4854013;29;20064;-75
2021/04/04 06:51:16;;;;;;;4.72;1.67;;;8.00;63.20;;;;;;4841635;29;20085;-75
2021/04/04 06:53:52;;;;;;;7.90;2.97;;;8.00;62.70;;;;;;4843888;29;20049;-76
2021/04/04 06:56:39;;;;;;;4.95;2.20;;;8.10;62.10;;;;;;4858441;29;20064;-76
2021/04/04 06:59:44;;;;;;;8.45;2.45;;;8.20;62.10;;;;;;4842174;29;20054;-76
2021/04/04 07:02:12;;;;;;;5.55;2.08;;;8.40;62.00;;;;;;4842124;29;20528;-76
2021/04/04 07:04:46;;;;;;;3.85;2.28;;;8.40;62.10;;;;;;4845047;29;20049;-75
2021/04/04 07:07:36;;;;;;;6.75;2.47;;;8.50;61.50;;;;;;4859920;29;20056;-76
2021/04/04 07:10:34;;;;;;;5.32;2.58;;;8.50;61.10;;;;;;4857293;29;20106;-76
2021/04/04 07:13:27;;;;;;;8.50;2.42;;;8.50;60.90;;;;;;4843471;29;20462;-76
2021/04/04 07:15:57;;;;;;;;;;;8.40;61.00;;;;;;4875818;29;20570;-76
2021/04/04 07:18:48;;;;;;;5.47;2.05;;;8.40;61.20;;;;;;4852780;29;19928;-76
2021/04/04 07:21:42;;;;;;;6.25;2.33;;;8.50;61.60;;;;;;4851970;29;20138;-76
2021/04/04 07:24:11;;;;;;;6.65;2.40;;;8.60;60.90;;;;;;4863621;29;20072;-76
2021/04/04 07:27:15;;;;;;;5.40;2.20;;;8.70;61.00;;;;;;4856753;29;20484;-76
2021/04/04 07:30:03;;;;;;;5.80;2.38;;;8.80;60.20;;;;;;4860549;29;20147;-76
2021/04/04 07:32:46;;;;;;;4.82;2.13;;;9.00;60.00;;;;;;4843681;29;20447;-76
2021/04/04 07:35:23;;;;;;;5.28;1.85;;;9.00;60.40;;;;;;4845572;29;20053;-76
2021/04/04 07:38:10;;;;;;;4.43;2.45;;;9.10;60.60;;;;;;4854809;29;20951;-76
2021/04/04 07:41:04;;;;;;;6.97;2.00;;;9.20;60.20;;;;;;4831935;29;20416;-76
2021/04/04 07:44:08;;;;;;;4.20;1.85;;;9.20;58.80;;;;;;4849863;29;20509;-76
2021/04/04 07:46:52;;;;;;;3.50;1.70;;;9.50;58.70;;;;;;4853907;29;20480;-76
2021/04/04 07:50:03;;;;;;;4.90;1.83;;;9.60;57.20;;;;;;4844138;29;20360;-76
2021/04/04 07:52:29;;;;;;;5.18;1.77;;;9.70;58.30;;;;;;4836403;29;20063;-76
2021/04/04 07:55:08;;;;;;;4.10;1.48;;;9.80;57.30;;;;;;4862749;29;20449;-76
2021/04/04 07:58:04;;;;;;;3.05;1.55;;;9.80;57.50;;;;;;4863204;29;20041;-76
2021/04/04 08:00:39;;;;;;;3.90;1.40;;;9.90;56.10;;;;;;4841960;29;20046;-76
2021/04/04 08:03:52;;;;;;;4.10;0.85;;;10.00;56.20;;;;;;4858087;29;20437;-76
2021/04/04 08:06:24;;;;;;;3.53;1.33;;;10.10;55.00;;;;;;4770613;29;20055;-76
2021/04/04 08:09:29;;;;;;;5.97;1.92;;;10.20;55.00;;;;;;4796899;29;20112;-76
2021/04/04 08:12:06;;;;;;;3.40;1.33;;;10.40;54.50;;;;;;4776930;30;20074;-76
2021/04/04 08:14:44;;;;;;;1.98;0.88;;;10.50;54.00;;;;;;4775512;30;20061;-76
2021/04/04 08:17:11;;;;;;;4.05;0.90;;;10.60;52.20;;;;;;4783590;30;20124;-75
2021/04/04 08:19:42;;;;;;;2.70;1.00;;;10.60;51.50;;;;;;4760542;30;20039;-76
2021/04/04 08:22:21;;;;;;;3.15;1.10;;;10.50;51.50;;;;;;4798560;29;20469;-76
2021/04/04 08:24:56;;;;;;;3.92;1.08;;;10.60;53.10;;;;;;4756220;29;20058;-76
2021/04/04 08:27:42;;;;;;;2.30;1.13;;;10.80;52.80;;;;;;4778396;30;20051;-76
2021/04/04 08:30:29;;;;;;;1.35;0.68;;;11.00;50.80;;;;;;4771986;30;20043;-76
2021/04/04 08:33:01;;;;;;;3.78;0.95;;;11.20;49.90;;;;;;4753618;30;20051;-76
2021/04/04 08:35:47;;;;;;;3.63;0.93;;;11.30;50.00;;;;;;4757185;30;20062;-76
2021/04/04 08:38:25;;;;;;;2.67;1.02;;;11.40;50.30;;;;;;4847038;29;20110;-75
2021/04/04 08:40:56;;;;;;;2.10;0.75;;;11.40;50.30;;;;;;4853841;29;20137;-76
2021/04/04 08:43:24;;;;;;;1.35;0.65;;;11.50;50.00;;;;;;4852400;29;20041;-77
2021/04/04 08:46:23;;;;;;;2.97;1.13;;;11.70;49.10;;;;;;4858424;29;20052;-76
2021/04/04 08:48:52;;;;;;;2.42;0.75;;;11.60;48.90;;;;;;4858121;29;20068;-76
2021/04/04 08:51:24;;;;;;;2.58;0.50;;;11.60;49.00;;;;;;4858602;29;20442;-76
2021/04/04 08:53:52;;;;;;;2.08;0.60;;;11.50;47.60;;;;;;4858077;29;20501;-76
2021/04/04 08:56:21;;;;;;;1.38;0.47;;;11.50;47.00;;;;;;4852901;29;20046;-76
2021/04/04 08:58:54;;;;;;;1.45;0.50;;;11.50;46.30;;;;;;4842337;29;20045;-76
2021/04/04 09:01:33;;;;;;;1.48;0.52;;;11.70;45.80;;;;;;4857391;29;20408;-77
2021/04/04 09:04:04;;;;;;;3.78;0.63;;;11.90;45.80;;;;;;4871499;29;20041;-76
2021/04/04 09:06:39;;;;;;;1.42;0.50;;;12.10;46.50;;;;;;4845972;29;20711;-76
2021/04/04 09:09:35;;;;;;;2.30;0.50;;;12.30;45.60;;;;;;4858338;29;20055;-76
2021/04/04 09:12:02;;;;;;;1.67;0.70;;;12.50;45.60;;;;;;4841132;29;20398;-76
2021/04/04 09:14:38;;;;;;;2.38;1.00;;;12.70;45.40;;;;;;4855425;29;20049;-77
2021/04/04 09:17:11;;;;;;;1.70;0.65;;;12.90;46.10;;;;;;4855399;29;20596;-76
2021/04/04 09:19:39;;;;;;;;;;;12.90;44.60;;;;;;4850471;29;20072;-76
2021/04/04 09:22:21;;;;;;;1.20;0.40;;;13.00;43.90;;;;;;4840360;29;19924;-77
2021/04/04 09:24:54;;;;;;;2.35;0.68;;;13.30;43.40;;;;;;4857524;29;20568;-77
2021/04/04 09:27:39;;;;;;;1.63;0.38;;;13.50;42.60;;;;;;4854292;29;20052;-77
2021/04/04 09:30:23;;;;;;;0.85;0.25;;;13.70;41.90;;;;;;4857554;29;20042;-77
2021/04/04 09:32:59;;;;;;;2.05;0.50;;;14.00;40.70;;;;;;4839846;29;20069;-77
2021/04/04 09:35:26;;;;;;;6.72;0.80;;;14.10;40.40;;;;;;4848277;29;20046;-77
2021/04/04 09:38:09;;;;;;;3.00;0.80;;;14.20;41.90;;;;;;4848533;29;20869;-77
2021/04/04 09:40:41;;;;;;;2.05;0.77;;;14.50;41.60;;;;;;4849100;29;20196;-76
2021/04/04 09:43:11;;;;;;;1.02;0.70;;;14.60;40.80;;;;;;4834584;29;20054;-76
2021/04/04 09:45:39;;;;;;;3.67;0.70;;;14.80;40.60;;;;;;4839221;29;20045;-76
2021/04/04 09:48:26;;;;;;;2.20;0.68;;;14.20;39.60;;;;;;4857179;29;20076;-77
2021/04/04 09:51:08;;;;;;;2.88;0.80;;;14.00;41.50;;;;;;4840133;29;20581;-77
2021/04/04 09:53:40;;;;;;;1.85;0.82;;;13.90;41.40;;;;;;4855848;29;20481;-77
2021/04/04 09:56:12;;;;;;;2.23;0.73;;;13.70;41.70;;;;;;4855887;29;20886;-76
2021/04/04 09:58:45;;;;;;;4.05;0.95;;;13.70;42.60;;;;;;4856485;29;20415;-77
2021/04/04 10:01:20;;;;;;;1.65;0.70;;;14.00;41.90;;;;;;4850801;29;20058;-76
2021/04/04 10:04:01;;;;;;;3.20;1.20;;;14.40;41.30;;;;;;4861472;29;20045;-77
2021/04/04 10:06:30;;;;;;;2.00;0.98;;;14.50;40.60;;;;;;4841575;29;20053;-76
2021/04/04 10:09:08;;;;;;;2.33;0.75;;;14.50;38.70;;;;;;4861029;29;20049;-76
2021/04/04 10:11:35;;;;;;;1.77;0.68;;;14.10;38.10;;;;;;4859425;29;20068;-76
2021/04/04 10:14:20;;;;;;;1.55;0.60;;;13.60;37.50;;;;;;4859534;29;20122;-76
2021/04/04 10:17:08;;;;;;;1.80;0.80;;;13.20;39.80;;;;;;4859200;29;20386;-76
2021/04/04 10:19:53;;;;;;;2.95;0.60;;;13.00;40.60;;;;;;4871556;29;20505;-76
2021/04/04 10:22:20;;;;;;;3.42;0.88;;;12.80;40.90;;;;;;4861103;29;20052;-76
2021/04/04 10:24:48;;;;;;;4.05;0.80;;;12.80;41.40;;;;;;4860767;29;20053;-76
2021/04/04 10:27:29;;;;;;;2.08;1.05;;;12.40;40.70;;;;;;4860693;29;20049;-76
2021/04/04 10:30:13;;;;;;;1.63;0.57;;;12.50;41.40;;;;;;4846483;29;20151;-76
2021/04/04 10:32:45;;;;;;;1.98;0.70;;;12.70;41.40;;;;;;4856017;29;20042;-76
2021/04/04 10:35:34;;;;;;;3.38;0.63;;;12.80;40.60;;;;;;4820963;29;20069;-76
2021/04/04 10:38:12;;;;;;;1.27;0.68;;;12.80;39.10;;;;;;4857440;29;20065;-76
2021/04/04 10:40:44;;;;;;;2.30;0.50;;;12.90;39.30;;;;;;4854278;29;20397;-76
2021/04/04 10:43:12;;;;;;;1.67;0.50;;;12.70;36.60;;;;;;4861488;29;20048;-76
2021/04/04 10:46:02;;;;;;;1.85;0.50;;;12.60;38.00;;;;;;4861511;29;20054;-76
2021/04/04 10:48:30;;;;;;;2.78;0.60;;;12.70;39.70;;;;;;4846949;29;20110;-76
2021/04/04 10:50:58;;;;;;;4.82;1.00;;;12.70;40.30;;;;;;4857199;29;20061;-76
2021/04/04 10:53:25;;;;;;;1.35;0.55;;;12.70;40.40;;;;;;4860397;29;20053;-76
2021/04/04 10:55:52;;;;;;;1.73;0.70;;;12.80;40.20;;;;;;4860901;29;20052;-76
2021/04/04 10:58:21;;;;;;;1.52;0.57;;;13.00;40.00;;;;;;4862182;29;20053;-76
2021/04/04 11:00:48;;;;;;;1.73;0.40;;;13.10;38.20;;;;;;4849123;29;20711;-76
2021/04/04 11:03:16;;;;;;;1.40;0.50;;;13.10;39.60;;;;;;4841700;29;20110;-77
2021/04/04 11:05:43;;;;;;;2.38;1.00;;;13.00;39.90;;;;;;4820236;29;20053;-76
2021/04/04 11:08:09;;;;;;;1.60;0.75;;;13.00;39.20;;;;;;4842641;29;20515;-76
2021/04/04 11:10:37;;;;;;;3.03;0.82;;;12.60;38.00;;;;;;4849388;29;20500;-77
2021/04/04 11:13:04;;;;;;;20.55;3.58;;;12.40;38.60;;;;;;4856621;29;20046;-76
2021/04/04 11:15:35;;;;;;;8.57;1.90;;;12.30;38.80;;;;;;4850863;29;20125;-77
2021/04/04 11:18:12;;;;;;;3.03;0.95;;;12.50;40.00;;;;;;4853702;29;20045;-77
2021/04/04 11:20:42;;;;;;;2.80;0.90;;;12.90;39.40;;;;;;4845840;29;20030;-76
2021/04/04 11:23:10;;;;;;;4.07;0.82;;;13.10;39.70;;;;;;4856357;29;20060;-76
2021/04/04 11:25:37;;;;;;;2.22;1.00;;;13.10;40.50;;;;;;4853677;29;20140;-76
2021/04/04 11:28:17;;;;;;;1.60;0.63;;;13.30;40.50;;;;;;4838540;29;21488;-76
2021/04/04 11:30:45;;;;;;;2.33;1.13;;;13.20;39.60;;;;;;4840145;29;20053;-76
2021/04/04 11:33:15;;;;;;;4.22;0.88;;;13.20;38.50;;;;;;4838080;29;20048;-76
2021/04/04 11:36:04;;;;;;;3.53;0.68;;;12.90;40.10;;;;;;4856605;29;20147;-76
2021/04/04 11:38:40;;;;;;;4.32;1.73;;;13.50;40.00;;;;;;4848365;29;20578;-76
2021/04/04 11:41:14;;;;;;;1.17;0.88;;;13.90;39.90;;;;;;4871841;29;21069;-76
2021/04/04 11:43:43;;;;;;;2.42;0.98;;;13.80;38.70;;;;;;4856808;29;20049;-76
2021/04/04 11:46:48;;;;;;;1.52;0.80;;;13.80;38.20;;;;;;4853462;29;20592;-76
2021/04/04 11:49:31;;;;;;;2.20;0.95;;;13.50;37.20;;;;;;4857846;29;20408;-76
2021/04/04 11:51:59;;;;;;;2.87;0.93;;;13.10;39.30;;;;;;4859431;29;20049;-76
2021/04/04 11:54:50;;;;;;;2.42;0.98;;;13.00;40.20;;;;;;4869542;29;20375;-76
2021/04/04 11:57:20;;;;;;;2.40;0.70;;;13.20;39.30;;;;;;4847003;29;20125;-76
2021/04/04 11:59:58;;;;;;;2.75;1.25;;;12.70;38.60;;;;;;4854833;29;20093;-75
2021/04/04 12:02:29;;;;;;;4.22;1.85;;;12.70;38.70;;;;;;4828367;29;20073;-75
2021/04/04 12:05:08;;;;;;;3.72;1.15;;;13.10;39.70;;;;;;4855199;29;20041;-75
2021/04/04 12:07:44;;;;;;;2.10;1.23;;;13.60;38.70;;;;;;4866789;29;20092;-75
2021/04/04 12:10:14;;;;;;;4.72;2.25;;;14.20;37.70;;;;;;4866097;29;20045;-76
2021/04/04 12:12:41;;;;;;;6.53;1.40;;;14.90;37.00;;;;;;4872681;29;20033;-75
2021/04/04 12:15:11;;;;;;;4.70;1.10;;;15.10;35.90;;;;;;4835393;29;20050;-75
2021/04/04 12:17:38;;;;;;;2.72;1.20;;;15.40;35.00;;;;;;4853357;29;20041;-76
2021/04/04 12:20:06;;;;;;;3.53;1.30;;;16.00;35.10;;;;;;4840452;29;20045;-76
2021/04/04 12:22:45;;;;;;;4.10;1.55;;;15.70;35.40;;;;;;4853427;29;20041;-76
2021/04/04 12:25:17;;;;;;;3.83;1.33;;;15.20;35.40;;;;;;4866741;29;20432;-75
2021/04/04 12:27:47;;;;;;;4.40;1.80;;;13.80;35.90;;;;;;4857007;29;20073;-76
2021/04/04 12:30:26;;;;;;;2.97;1.20;;;13.30;38.00;;;;;;4854824;29;20051;-75
2021/04/04 12:33:03;;;;;;;6.35;1.58;;;12.80;38.80;;;;;;4838344;29;20165;-75
2021/04/04 12:35:30;;;;;;;2.75;1.15;;;12.60;38.70;;;;;;4839931;29;20053;-75
2021/04/04 12:37:57;;;;;;;3.15;1.52;;;12.70;39.80;;;;;;4854026;29;20144;-75
2021/04/04 12:40:24;;;;;;;3.22;1.40;;;12.30;40.60;;;;;;4854778;29;20058;-75
2021/04/04 12:43:02;;;;;;;2.30;1.38;;;12.30;42.00;;;;;;4851872;29;20138;-75
2021/04/04 12:45:37;;;;;;;3.72;1.40;;;12.20;42.20;;;;;;4853307;29;20048;-75
2021/04/04 12:48:20;;;;;;;2.47;1.30;;;11.90;41.80;;;;;;4834952;29;20462;-76
2021/04/04 12:50:52;;;;;;;3.97;1.92;;;12.20;41.40;;;;;;4817215;29;20637;-76
2021/04/04 12:53:33;;;;;;;5.05;1.27;;;12.40;40.60;;;;;;4855268;29;20049;-76
2021/04/04 12:56:01;;;;;;;3.10;1.67;;;13.20;40.60;;;;;;4836169;29;20424;-76
2021/04/04 12:58:35;;;;;;;3.72;1.20;;;15.20;37.40;;;;;;4838602;29;20694;-75
2021/04/04 13:01:06;;;;;;;6.03;1.83;;;17.00;35.80;;;;;;4852125;29;20038;-75
2021/04/04 13:03:39;;;;;;;3.00;1.30;;;18.20;34.10;;;;;;4855538;29;20033;-75
2021/04/04 13:06:06;;;;;;;3.50;1.50;;;19.60;32.80;;;;;;4824519;29;20092;-74
2021/04/04 13:08:36;;;;;;;3.83;1.90;;;19.20;30.70;;;;;;4857227;29;20053;-75
2021/04/04 13:11:10;;;;;;;3.50;1.85;;;18.30;32.30;;;;;;4839851;29;20062;-75
2021/04/04 13:13:43;;;;;;;2.50;1.52;;;18.70;32.90;;;;;;4856505;29;20077;-75
2021/04/04 13:16:14;;;;;;;2.85;1.50;;;18.00;32.90;;;;;;4841626;29;20056;-75
2021/04/04 13:18:43;;;;;;;4.32;1.17;;;17.30;33.60;;;;;;4855179;29;20042;-75
2021/04/04 13:21:15;;;;;;;5.38;2.22;;;16.80;34.60;;;;;;4840299;29;20487;-75
2021/04/04 13:23:43;;;;;;;;;;;15.70;35.10;;;;;;4843931;29;20080;-75
2021/04/04 13:26:18;;;;;;;3.10;1.05;;;15.00;36.80;;;;;;4856733;29;19928;-74
2021/04/04 13:29:06;;;;;;;7.68;2.15;;;13.90;38.10;;;;;;4847582;29;20094;-75
2021/04/04 13:31:34;;;;;;;3.30;1.85;;;13.60;39.80;;;;;;4854822;29;20895;-75